sensor_id;sensor_type;location;lat;lon;timestamp;pressure;altitude;pressure_sealevel;temperature;humidity
15444;BME280;7822;48.146;11.576;2023-01-28T00:02:23;95399.22;;;13.66;43.85
15444;BME280;7822;48.146;11.576;2023-01-28T00:04:51;95412.66;;;13.62;44.10
15444;BME280;7822;48.146;11.576;2023-01-28T00:07:19;95401.97;;;13.65;44.78
15444;BME280;7822;48.146;11.576;2023-01-28T00:09:47;95400.75;;;13.59;44.79
15444;BME280;7822;48.146;11.576;2023-01-28T00:12:14;95409.63;;;13.66;45.01
15444;BME280;7822;48.146;11.576;2023-01-28T00:14:42;95399.22;;;13.66;45.52
15444;BME280;7822;48.146;11.576;2023-01-28T00:17:13;95394.81;;;13.67;45.71
15444;BME280;7822;48.146;11.576;2023-01-28T00:19:40;95400.75;;;13.59;44.46
15444;BME280;7822;48.146;11.576;2023-01-28T00:22:08;95396.19;;;13.52;44.03
15444;BME280;7822;48.146;11.576;2023-01-28T00:24:36;95394.69;;;13.49;43.76
15444;BME280;7822;48.146;11.576;2023-01-28T00:27:03;95388.13;;;13.55;44.88
15444;BME280;7822;48.146;11.576;2023-01-28T00:29:31;95392.91;;;13.59;46.18
15444;BME280;7822;48.146;11.576;2023-01-28T00:31:59;95395.91;;;13.64;46.96
15444;BME280;7822;48.146;11.576;2023-01-28T00:34:28;95393.03;;;13.67;47.73
15444;BME280;7822;48.146;11.576;2023-01-28T00:36:55;95393.59;;;13.71;48.40
15444;BME280;7822;48.146;11.576;2023-01-28T00:39:24;95395.94;;;13.74;48.78
15444;BME280;7822;48.146;11.576;2023-01-28T00:41:52;95397.28;;;13.78;49.28
15444;BME280;7822;48.146;11.576;2023-01-28T00:44:20;95397.03;;;13.81;49.30
15444;BME280;7822;48.146;11.576;2023-01-28T00:46:48;95396.06;;;13.82;49.79
15444;BME280;7822;48.146;11.576;2023-01-28T00:49:16;95396.88;;;13.82;50.16
15444;BME280;7822;48.146;11.576;2023-01-28T00:51:45;95400.03;;;13.86;50.68
15444;BME280;7822;48.146;11.576;2023-01-28T00:54:14;95386.88;;;13.87;50.93
15444;BME280;7822;48.146;11.576;2023-01-28T00:56:42;95386.88;;;13.87;51.16
15444;BME280;7822;48.146;11.576;2023-01-28T00:59:10;95389.31;;;13.89;51.50
15444;BME280;7822;48.146;11.576;2023-01-28T01:01:37;95392.75;;;13.89;51.67
15444;BME280;7822;48.146;11.576;2023-01-28T01:04:05;95386.56;;;13.90;52.04
15444;BME280;7822;48.146;11.576;2023-01-28T01:06:35;95395.22;;;13.91;52.12
15444;BME280;7822;48.146;11.576;2023-01-28T01:09:06;95392.47;;;13.92;52.60
15444;BME280;7822;48.146;11.576;2023-01-28T01:11:34;95389.88;;;13.92;52.56
15444;BME280;7822;48.146;11.576;2023-01-28T01:14:02;95405.41;;;13.94;52.66
15444;BME280;7822;48.146;11.576;2023-01-28T01:16:31;95399.34;;;13.93;52.74
15444;BME280;7822;48.146;11.576;2023-01-28T01:19:01;95401.00;;;13.94;52.88
15444;BME280;7822;48.146;11.576;2023-01-28T01:21:29;95407.03;;;13.95;53.21
15444;BME280;7822;48.146;11.576;2023-01-28T01:23:57;95399.19;;;13.95;53.35
15444;BME280;7822;48.146;11.576;2023-01-28T01:26:26;95397.41;;;13.95;53.29
15444;BME280;7822;48.146;11.576;2023-01-28T01:28:54;95396.59;;;13.95;53.59
15444;BME280;7822;48.146;11.576;2023-01-28T01:31:22;95399.88;;;13.97;53.63
15444;BME280;7822;48.146;11.576;2023-01-28T01:33:50;95397.28;;;13.97;54.07
15444;BME280;7822;48.146;11.576;2023-01-28T01:36:18;95400.72;;;13.97;53.73
15444;BME280;7822;48.146;11.576;2023-01-28T01:38:51;95397.28;;;13.97;54.02
15444;BME280;7822;48.146;11.576;2023-01-28T01:41:27;95408.38;;;13.99;54.35
15444;BME280;7822;48.146;11.576;2023-01-28T01:43:57;95410.19;;;13.98;54.24
15444;BME280;7822;48.146;11.576;2023-01-28T01:46:31;95412.66;;;14.00;54.52
15444;BME280;7822;48.146;11.576;2023-01-28T01:49:06;95415.25;;;14.00;54.28
15444;BME280;7822;48.146;11.576;2023-01-28T01:51:39;95412.50;;;14.01;54.67
15444;BME280;7822;48.146;11.576;2023-01-28T01:54:07;95416.91;;;14.01;54.47
15444;BME280;7822;48.146;11.576;2023-01-28T01:56:38;95419.38;;;14.02;54.60
15444;BME280;7822;48.146;11.576;2023-01-28T01:59:10;95415.94;;;14.02;54.83
15444;BME280;7822;48.146;11.576;2023-01-28T02:01:39;95419.38;;;14.02;54.94
15444;BME280;7822;48.146;11.576;2023-01-28T02:04:10;95422.00;;;14.02;55.03
15444;BME280;7822;48.146;11.576;2023-01-28T02:06:40;95421.84;;;14.04;54.94
15444;BME280;7822;48.146;11.576;2023-01-28T02:09:22;95419.38;;;14.02;55.18
15444;BME280;7822;48.146;11.576;2023-01-28T02:11:53;95413.19;;;14.03;55.18
15444;BME280;7822;48.146;11.576;2023-01-28T02:14:25;95422.66;;;14.04;55.28
15444;BME280;7822;48.146;11.576;2023-01-28T02:16:57;95418.28;;;14.05;55.50
15444;BME280;7822;48.146;11.576;2023-01-28T02:19:28;95424.59;;;14.02;55.49
15444;BME280;7822;48.146;11.576;2023-01-28T02:22:27;95416.63;;;14.04;55.57
15444;BME280;7822;48.146;11.576;2023-01-28T02:25:18;95431.31;;;14.05;55.58
15444;BME280;7822;48.146;11.576;2023-01-28T02:28:07;95427.06;;;14.04;55.53
15444;BME280;7822;48.146;11.576;2023-01-28T02:30:39;95428.72;;;14.05;55.79
15444;BME280;7822;48.146;11.576;2023-01-28T02:33:11;95421.69;;;14.05;55.60
15444;BME280;7822;48.146;11.576;2023-01-28T02:35:45;95416.47;;;14.05;55.79
15444;BME280;7822;48.146;11.576;2023-01-28T02:38:17;95424.19;;;14.07;55.88
15444;BME280;7822;48.146;11.576;2023-01-28T02:40:51;95425.81;;;14.08;56.17
15444;BME280;7822;48.146;11.576;2023-01-28T02:43:34;95434.47;;;14.08;55.70
15444;BME280;7822;48.146;11.576;2023-01-28T02:46:12;95437.06;;;14.08;55.80
15444;BME280;7822;48.146;11.576;2023-01-28T02:49:02;95425.81;;;14.08;56.49
15444;BME280;7822;48.146;11.576;2023-01-28T02:51:38;95430.22;;;14.07;56.21
15444;BME280;7822;48.146;11.576;2023-01-28T02:54:12;95425.81;;;14.08;56.03
15444;BME280;7822;48.146;11.576;2023-01-28T02:56:46;95436.13;;;14.09;56.68
15444;BME280;7822;48.146;11.576;2023-01-28T02:59:22;95430.22;;;14.07;56.30
15444;BME280;7822;48.146;11.576;2023-01-28T03:02:07;95430.09;;;14.09;56.67
15444;BME280;7822;48.146;11.576;2023-01-28T03:04:40;95438.75;;;14.09;56.31
15444;BME280;7822;48.146;11.576;2023-01-28T03:07:12;95442.16;;;14.10;56.44
15444;BME280;7822;48.146;11.576;2023-01-28T03:09:42;95440.38;;;14.10;56.55
15444;BME280;7822;48.146;11.576;2023-01-28T03:12:15;95438.75;;;14.09;56.72
15444;BME280;7822;48.146;11.576;2023-01-28T03:15:05;95444.75;;;14.10;56.53
15444;BME280;7822;48.146;11.576;2023-01-28T03:17:56;95434.31;;;14.10;56.55
15444;BME280;7822;48.146;11.576;2023-01-28T03:20:46;95441.34;;;14.09;56.62
15444;BME280;7822;48.146;11.576;2023-01-28T03:23:37;95437.75;;;14.10;56.63
15444;BME280;7822;48.146;11.576;2023-01-28T03:26:27;95442.16;;;14.10;56.89
15444;BME280;7822;48.146;11.576;2023-01-28T03:29:14;95442.16;;;14.10;56.77
15444;BME280;7822;48.146;11.576;2023-01-28T03:32:02;95450.81;;;14.10;56.94
15444;BME280;7822;48.146;11.576;2023-01-28T03:34:48;95452.59;;;14.10;56.77
15444;BME280;7822;48.146;11.576;2023-01-28T03:37:34;95459.47;;;14.11;56.68
15444;BME280;7822;48.146;11.576;2023-01-28T03:40:03;95454.25;;;14.11;57.01
15444;BME280;7822;48.146;11.576;2023-01-28T03:42:31;95457.69;;;14.11;56.89
15444;BME280;7822;48.146;11.576;2023-01-28T03:44:59;95453.28;;;14.12;56.94
15444;BME280;7822;48.146;11.576;2023-01-28T03:47:31;95462.91;;;14.11;56.86
15444;BME280;7822;48.146;11.576;2023-01-28T03:50:00;95462.75;;;14.13;57.10
15444;BME280;7822;48.146;11.576;2023-01-28T03:52:30;95458.38;;;14.13;57.17
15444;BME280;7822;48.146;11.576;2023-01-28T03:54:58;95455.75;;;14.13;57.04
15444;BME280;7822;48.146;11.576;2023-01-28T03:57:27;95462.75;;;14.13;57.31
15444;BME280;7822;48.146;11.576;2023-01-28T03:59:56;95458.50;;;14.12;57.07
15444;BME280;7822;48.146;11.576;2023-01-28T04:02:24;95466.34;;;14.12;57.21
15444;BME280;7822;48.146;11.576;2023-01-28T04:04:54;95461.91;;;14.12;57.39
15444;BME280;7822;48.146;11.576;2023-01-28T04:07:24;95466.34;;;14.12;57.24
15444;BME280;7822;48.146;11.576;2023-01-28T04:09:52;95464.53;;;14.12;57.38
15444;BME280;7822;48.146;11.576;2023-01-28T04:12:19;95464.53;;;14.12;57.32
15444;BME280;7822;48.146;11.576;2023-01-28T04:14:48;95467.97;;;14.13;57.60
15444;BME280;7822;48.146;11.576;2023-01-28T04:17:16;95466.19;;;14.13;57.33
15444;BME280;7822;48.146;11.576;2023-01-28T04:19:44;95476.47;;;14.15;57.30
15444;BME280;7822;48.146;11.576;2023-01-28T04:22:13;95482.69;;;14.14;57.38
15444;BME280;7822;48.146;11.576;2023-01-28T04:24:40;95481.84;;;14.13;57.37
15444;BME280;7822;48.146;11.576;2023-01-28T04:27:08;95481.84;;;14.13;57.43
15444;BME280;7822;48.146;11.576;2023-01-28T04:29:36;95482.69;;;14.14;57.44
15444;BME280;7822;48.146;11.576;2023-01-28T04:32:04;95480.06;;;14.14;57.58
15444;BME280;7822;48.146;11.576;2023-01-28T04:34:31;95479.25;;;14.13;57.46
15444;BME280;7822;48.146;11.576;2023-01-28T04:36:59;95486.91;;;14.15;57.48
15444;BME280;7822;48.146;11.576;2023-01-28T04:39:28;95486.09;;;14.14;57.52
15444;BME280;7822;48.146;11.576;2023-01-28T04:41:56;95488.69;;;14.14;57.71
15444;BME280;7822;48.146;11.576;2023-01-28T04:44:23;95492.97;;;14.16;57.81
15444;BME280;7822;48.146;11.576;2023-01-28T04:46:51;95491.19;;;14.16;57.64
15444;BME280;7822;48.146;11.576;2023-01-28T04:49:19;95491.19;;;14.16;57.73
15444;BME280;7822;48.146;11.576;2023-01-28T04:51:46;95493.78;;;14.16;57.76
15444;BME280;7822;48.146;11.576;2023-01-28T04:54:16;95486.91;;;14.15;57.66
15444;BME280;7822;48.146;11.576;2023-01-28T04:56:45;95494.75;;;14.15;57.57
15444;BME280;7822;48.146;11.576;2023-01-28T04:59:12;95491.31;;;14.14;57.72
15444;BME280;7822;48.146;11.576;2023-01-28T05:01:40;95500.78;;;14.16;57.74
15444;BME280;7822;48.146;11.576;2023-01-28T05:04:08;95495.56;;;14.16;57.80
15444;BME280;7822;48.146;11.576;2023-01-28T05:06:36;95502.41;;;14.17;57.61
15444;BME280;7822;48.146;11.576;2023-01-28T05:09:03;95503.25;;;14.17;57.52
15444;BME280;7822;48.146;11.576;2023-01-28T05:11:31;95509.44;;;14.16;57.74
15444;BME280;7822;48.146;11.576;2023-01-28T05:14:00;95509.16;;;14.19;57.65
15444;BME280;7822;48.146;11.576;2023-01-28T05:16:28;95505.75;;;14.19;57.80
15444;BME280;7822;48.146;11.576;2023-01-28T05:18:57;95504.78;;;14.20;57.92
15444;BME280;7822;48.146;11.576;2023-01-28T05:21:25;95505.44;;;14.22;57.61
15444;BME280;7822;48.146;11.576;2023-01-28T05:23:53;95506.28;;;14.22;57.64
15444;BME280;7822;48.146;11.576;2023-01-28T05:26:21;95507.91;;;14.23;57.76
15444;BME280;7822;48.146;11.576;2023-01-28T05:28:48;95507.13;;;14.23;58.09
15444;BME280;7822;48.146;11.576;2023-01-28T05:31:18;95511.34;;;14.24;57.70
15444;BME280;7822;48.146;11.576;2023-01-28T05:33:45;95510.41;;;14.25;57.90
15444;BME280;7822;48.146;11.576;2023-01-28T05:36:13;95522.47;;;14.26;57.53
15444;BME280;7822;48.146;11.576;2023-01-28T05:38:40;95524.13;;;14.27;57.77
15444;BME280;7822;48.146;11.576;2023-01-28T05:41:08;95528.38;;;14.28;57.83
15444;BME280;7822;48.146;11.576;2023-01-28T05:43:36;95524.97;;;14.27;57.89
15444;BME280;7822;48.146;11.576;2023-01-28T05:46:04;95525.75;;;14.28;58.10
15444;BME280;7822;48.146;11.576;2023-01-28T05:48:34;95528.28;;;14.29;57.81
15444;BME280;7822;48.146;11.576;2023-01-28T05:51:01;95536.22;;;14.28;57.57
15444;BME280;7822;48.146;11.576;2023-01-28T05:53:30;95536.13;;;14.29;57.72
15444;BME280;7822;48.146;11.576;2023-01-28T05:55:58;95533.50;;;14.29;57.90
15444;BME280;7822;48.146;11.576;2023-01-28T05:58:25;95534.34;;;14.30;57.85
15444;BME280;7822;48.146;11.576;2023-01-28T06:00:56;95546.56;;;14.29;58.03
15444;BME280;7822;48.146;11.576;2023-01-28T06:03:24;95547.41;;;14.30;57.86
15444;BME280;7822;48.146;11.576;2023-01-28T06:05:53;95544.78;;;14.30;57.82
15444;BME280;7822;48.146;11.576;2023-01-28T06:08:20;95545.59;;;14.30;58.16
15444;BME280;7822;48.146;11.576;2023-01-28T06:10:48;95553.41;;;14.30;58.01
15444;BME280;7822;48.146;11.576;2023-01-28T06:13:16;95553.41;;;14.30;57.84
15444;BME280;7822;48.146;11.576;2023-01-28T06:15:43;95543.81;;;14.31;58.04
15444;BME280;7822;48.146;11.576;2023-01-28T06:18:11;95550.69;;;14.32;58.25
15444;BME280;7822;48.146;11.576;2023-01-28T06:20:39;95557.69;;;14.31;58.07
15444;BME280;7822;48.146;11.576;2023-01-28T06:23:08;95550.00;;;14.30;57.97
15444;BME280;7822;48.146;11.576;2023-01-28T06:25:35;95560.28;;;14.31;58.11
15444;BME280;7822;48.146;11.576;2023-01-28T06:28:03;95562.91;;;14.31;57.82
15444;BME280;7822;48.146;11.576;2023-01-28T06:30:31;95557.69;;;14.31;58.23
15444;BME280;7822;48.146;11.576;2023-01-28T06:32:58;95564.53;;;14.32;58.08
15444;BME280;7822;48.146;11.576;2023-01-28T06:35:26;95564.53;;;14.32;58.30
15444;BME280;7822;48.146;11.576;2023-01-28T06:37:54;95568.81;;;14.33;58.19
15444;BME280;7822;48.146;11.576;2023-01-28T06:40:23;95563.72;;;14.32;58.20
15444;BME280;7822;48.146;11.576;2023-01-28T06:42:51;95568.94;;;14.32;58.27
15444;BME280;7822;48.146;11.576;2023-01-28T06:45:19;95570.59;;;14.33;58.23
15444;BME280;7822;48.146;11.576;2023-01-28T06:47:46;95571.41;;;14.33;58.21
15444;BME280;7822;48.146;11.576;2023-01-28T06:50:14;95569.75;;;14.32;58.09
15444;BME280;7822;48.146;11.576;2023-01-28T06:52:43;95574.03;;;14.33;58.24
15444;BME280;7822;48.146;11.576;2023-01-28T06:55:10;95577.47;;;14.34;58.39
15444;BME280;7822;48.146;11.576;2023-01-28T06:57:40;95582.81;;;14.32;58.41
15444;BME280;7822;48.146;11.576;2023-01-28T07:00:11;95578.41;;;14.33;58.30
15444;BME280;7822;48.146;11.576;2023-01-28T07:02:41;95579.25;;;14.33;58.37
15444;BME280;7822;48.146;11.576;2023-01-28T07:05:09;95583.63;;;14.33;58.42
15444;BME280;7822;48.146;11.576;2023-01-28T07:07:37;95590.63;;;14.32;58.36
15444;BME280;7822;48.146;11.576;2023-01-28T07:10:08;95585.41;;;14.32;58.44
15444;BME280;7822;48.146;11.576;2023-01-28T07:12:36;95594.91;;;14.33;58.59
15444;BME280;7822;48.146;11.576;2023-01-28T07:15:06;95594.06;;;14.33;58.26
15444;BME280;7822;48.146;11.576;2023-01-28T07:17:38;95594.91;;;14.33;58.55
15444;BME280;7822;48.146;11.576;2023-01-28T07:20:07;95594.06;;;14.33;58.47
15444;BME280;7822;48.146;11.576;2023-01-28T07:22:36;95593.25;;;14.32;58.77
15444;BME280;7822;48.146;11.576;2023-01-28T07:25:05;95591.47;;;14.33;58.68
15444;BME280;7822;48.146;11.576;2023-01-28T07:27:33;95595.75;;;14.34;58.50
15444;BME280;7822;48.146;11.576;2023-01-28T07:30:01;95609.59;;;14.34;58.66
15444;BME280;7822;48.146;11.576;2023-01-28T07:32:30;95607.81;;;14.35;58.59
15444;BME280;7822;48.146;11.576;2023-01-28T07:34:58;95609.47;;;14.36;58.45
15444;BME280;7822;48.146;11.576;2023-01-28T07:37:25;95605.19;;;14.35;58.59
15444;BME280;7822;48.146;11.576;2023-01-28T07:39:53;95612.91;;;14.36;58.53
15444;BME280;7822;48.146;11.576;2023-01-28T07:42:21;95608.63;;;14.35;58.44
15444;BME280;7822;48.146;11.576;2023-01-28T07:44:48;95617.31;;;14.36;58.58
15444;BME280;7822;48.146;11.576;2023-01-28T07:47:16;95613.03;;;14.35;58.55
15444;BME280;7822;48.146;11.576;2023-01-28T07:49:46;95624.28;;;14.35;58.71
15444;BME280;7822;48.146;11.576;2023-01-28T07:52:13;95621.00;;;14.33;58.76
15444;BME280;7822;48.146;11.576;2023-01-28T07:54:41;95623.47;;;14.35;58.59
15444;BME280;7822;48.146;11.576;2023-01-28T07:57:09;95634.75;;;14.35;58.67
15444;BME280;7822;48.146;11.576;2023-01-28T07:59:36;95638.28;;;14.34;58.80
15444;BME280;7822;48.146;11.576;2023-01-28T08:02:05;95633.91;;;14.35;59.07
15444;BME280;7822;48.146;11.576;2023-01-28T08:04:32;95635.69;;;14.34;58.79
15444;BME280;7822;48.146;11.576;2023-01-28T08:07:02;95633.91;;;14.35;59.05
15444;BME280;7822;48.146;11.576;2023-01-28T08:09:33;95639.13;;;14.35;58.83
15444;BME280;7822;48.146;11.576;2023-01-28T08:12:01;95644.34;;;14.35;58.80
15444;BME280;7822;48.146;11.576;2023-01-28T08:14:28;95642.56;;;14.35;58.82
15444;BME280;7822;48.146;11.576;2023-01-28T08:16:56;95660.84;;;14.35;58.90
15444;BME280;7822;48.146;11.576;2023-01-28T08:19:24;95651.34;;;14.34;58.84
15444;BME280;7822;48.146;11.576;2023-01-28T08:21:51;95646.13;;;14.34;58.92
15444;BME280;7822;48.146;11.576;2023-01-28T08:24:20;95652.19;;;14.35;58.98
15444;BME280;7822;48.146;11.576;2023-01-28T08:26:48;95656.44;;;14.36;58.62
15444;BME280;7822;48.146;11.576;2023-01-28T08:29:16;95660.84;;;14.35;58.93
15444;BME280;7822;48.146;11.576;2023-01-28T08:31:44;95659.06;;;14.36;58.92
15444;BME280;7822;48.146;11.576;2023-01-28T08:34:12;95671.28;;;14.35;59.06
15444;BME280;7822;48.146;11.576;2023-01-28T08:36:39;95664.28;;;14.36;58.91
15444;BME280;7822;48.146;11.576;2023-01-28T08:39:07;95661.66;;;14.36;58.89
15444;BME280;7822;48.146;11.576;2023-01-28T08:41:36;95667.00;;;14.34;59.03
15444;BME280;7822;48.146;11.576;2023-01-28T08:44:04;95667.84;;;14.35;59.06
15444;BME280;7822;48.146;11.576;2023-01-28T08:46:32;95665.22;;;14.35;58.94
15444;BME280;7822;48.146;11.576;2023-01-28T08:48:59;95669.63;;;14.34;59.05
15444;BME280;7822;48.146;11.576;2023-01-28T08:51:28;95670.44;;;14.35;59.18
15444;BME280;7822;48.146;11.576;2023-01-28T08:53:56;95676.63;;;14.34;58.92
15444;BME280;7822;48.146;11.576;2023-01-28T08:56:23;95673.06;;;14.35;59.09
15444;BME280;7822;48.146;11.576;2023-01-28T08:58:52;95680.88;;;14.35;59.17
15444;BME280;7822;48.146;11.576;2023-01-28T09:01:20;95685.16;;;14.36;59.34
15444;BME280;7822;48.146;11.576;2023-01-28T09:03:48;95685.16;;;14.36;58.80
15444;BME280;7822;48.146;11.576;2023-01-28T09:06:15;95686.94;;;14.35;59.18
15444;BME280;7822;48.146;11.576;2023-01-28T09:08:43;95690.38;;;14.36;59.23
15444;BME280;7822;48.146;11.576;2023-01-28T09:11:11;95685.16;;;14.36;59.08
15444;BME280;7822;48.146;11.576;2023-01-28T09:13:38;95690.38;;;14.36;59.25
15444;BME280;7822;48.146;11.576;2023-01-28T09:16:08;95692.16;;;14.35;59.30
15444;BME280;7822;48.146;11.576;2023-01-28T09:18:36;95690.38;;;14.36;59.10
15444;BME280;7822;48.146;11.576;2023-01-28T09:21:04;95680.78;;;14.36;59.04
15444;BME280;7822;48.146;11.576;2023-01-28T09:23:33;95692.84;;;14.37;59.12
15444;BME280;7822;48.146;11.576;2023-01-28T09:26:02;95692.00;;;14.37;59.07
15444;BME280;7822;48.146;11.576;2023-01-28T09:28:30;95693.69;;;14.38;59.18
15444;BME280;7822;48.146;11.576;2023-01-28T09:31:02;95692.00;;;14.37;59.26
15444;BME280;7822;48.146;11.576;2023-01-28T09:33:32;95690.91;;;14.39;59.38
15444;BME280;7822;48.146;11.576;2023-01-28T09:36:00;95696.84;;;14.41;59.57
15444;BME280;7822;48.146;11.576;2023-01-28T09:38:29;95701.09;;;14.42;59.43
15444;BME280;7822;48.146;11.576;2023-01-28T09:40:57;95691.59;;;14.41;59.52
15444;BME280;7822;48.146;11.576;2023-01-28T09:43:39;95692.59;;;14.40;59.26
15444;BME280;7822;48.146;11.576;2023-01-28T09:46:13;95692.59;;;14.40;59.21
15444;BME280;7822;48.146;11.576;2023-01-28T09:48:44;95691.75;;;14.40;59.62
15444;BME280;7822;48.146;11.576;2023-01-28T09:51:25;95689.97;;;14.40;59.41
15444;BME280;7822;48.146;11.576;2023-01-28T09:53:58;95690.91;;;14.39;59.46
15444;BME280;7822;48.146;11.576;2023-01-28T09:56:29;95696.13;;;14.39;59.47
15444;BME280;7822;48.146;11.576;2023-01-28T09:58:59;95684.88;;;14.39;59.38
15444;BME280;7822;48.146;11.576;2023-01-28T10:01:38;95684.75;;;14.40;59.53
15444;BME280;7822;48.146;11.576;2023-01-28T10:04:21;95689.16;;;14.40;59.43
15444;BME280;7822;48.146;11.576;2023-01-28T10:06:58;95685.84;;;14.38;59.19
15444;BME280;7822;48.146;11.576;2023-01-28T10:09:36;95683.09;;;14.39;59.71
15444;BME280;7822;48.146;11.576;2023-01-28T10:12:23;95679.66;;;14.39;59.46
15444;BME280;7822;48.146;11.576;2023-01-28T10:15:09;95680.47;;;14.39;59.65
15444;BME280;7822;48.146;11.576;2023-01-28T10:17:40;95677.03;;;14.39;59.44
15444;BME280;7822;48.146;11.576;2023-01-28T10:20:17;95680.47;;;14.39;59.48
15444;BME280;7822;48.146;11.576;2023-01-28T10:22:51;95677.72;;;14.41;59.54
15444;BME280;7822;48.146;11.576;2023-01-28T10:25:22;95673.34;;;14.41;59.43
15444;BME280;7822;48.146;11.576;2023-01-28T10:27:51;95665.66;;;14.40;59.58
15444;BME280;7822;48.146;11.576;2023-01-28T10:30:21;95668.94;;;14.42;59.57
15444;BME280;7822;48.146;11.576;2023-01-28T10:32:52;95663.03;;;14.40;59.64
15444;BME280;7822;48.146;11.576;2023-01-28T10:35:24;95666.47;;;14.40;59.52
15444;BME280;7822;48.146;11.576;2023-01-28T10:37:57;95661.25;;;14.40;59.66
15444;BME280;7822;48.146;11.576;2023-01-28T10:40:27;95672.50;;;14.41;59.58
15444;BME280;7822;48.146;11.576;2023-01-28T10:42:55;95669.09;;;14.40;59.57
15444;BME280;7822;48.146;11.576;2023-01-28T10:45:25;95667.28;;;14.41;59.56
15444;BME280;7822;48.146;11.576;2023-01-28T10:48:00;95667.28;;;14.41;59.75
15444;BME280;7822;48.146;11.576;2023-01-28T10:50:30;95668.25;;;14.40;59.72
15444;BME280;7822;48.146;11.576;2023-01-28T10:53:00;95666.47;;;14.40;59.40
15444;BME280;7822;48.146;11.576;2023-01-28T10:55:30;95663.88;;;14.40;59.70
15444;BME280;7822;48.146;11.576;2023-01-28T10:58:03;95661.25;;;14.40;59.74
15444;BME280;7822;48.146;11.576;2023-01-28T11:00:33;95667.28;;;14.41;59.46
15444;BME280;7822;48.146;11.576;2023-01-28T11:03:03;95663.88;;;14.40;60.00
15444;BME280;7822;48.146;11.576;2023-01-28T11:05:32;95663.03;;;14.40;59.57
15444;BME280;7822;48.146;11.576;2023-01-28T11:08:04;95664.69;;;14.41;59.71
15444;BME280;7822;48.146;11.576;2023-01-28T11:10:34;95662.06;;;14.41;59.60
15444;BME280;7822;48.146;11.576;2023-01-28T11:13:03;95663.88;;;14.40;59.86
15444;BME280;7822;48.146;11.576;2023-01-28T11:15:32;95663.72;;;14.42;59.74
15444;BME280;7822;48.146;11.576;2023-01-28T11:18:02;95658.66;;;14.40;59.57
15444;BME280;7822;48.146;11.576;2023-01-28T11:20:36;95663.72;;;14.42;59.78
15444;BME280;7822;48.146;11.576;2023-01-28T11:23:04;95658.50;;;14.42;59.57
15444;BME280;7822;48.146;11.576;2023-01-28T11:25:34;95654.94;;;14.43;59.51
15444;BME280;7822;48.146;11.576;2023-01-28T11:28:04;95667.19;;;14.42;59.62
15444;BME280;7822;48.146;11.576;2023-01-28T11:30:35;95668.00;;;14.43;59.80
15444;BME280;7822;48.146;11.576;2023-01-28T11:33:13;95673.34;;;14.41;59.48
15444;BME280;7822;48.146;11.576;2023-01-28T11:35:52;95665.50;;;14.41;59.81
15444;BME280;7822;48.146;11.576;2023-01-28T11:38:21;95668.94;;;14.42;60.07
15444;BME280;7822;48.146;11.576;2023-01-28T11:40:50;95666.34;;;14.42;59.92
15444;BME280;7822;48.146;11.576;2023-01-28T11:43:19;95673.34;;;14.41;59.89
15444;BME280;7822;48.146;11.576;2023-01-28T11:45:54;95675.00;;;14.42;60.06
15444;BME280;7822;48.146;11.576;2023-01-28T11:48:33;95669.09;;;14.40;59.76
15444;BME280;7822;48.146;11.576;2023-01-28T11:51:26;95674.16;;;14.42;59.98
15444;BME280;7822;48.146;11.576;2023-01-28T11:54:05;95675.00;;;14.42;59.88
15444;BME280;7822;48.146;11.576;2023-01-28T11:56:49;95658.66;;;14.40;60.01
15444;BME280;7822;48.146;11.576;2023-01-28T11:59:34;95657.81;;;14.40;59.88
15444;BME280;7822;48.146;11.576;2023-01-28T12:02:18;95659.75;;;14.38;59.71
15444;BME280;7822;48.146;11.576;2023-01-28T12:04:59;95653.69;;;14.37;59.73
15444;BME280;7822;48.146;11.576;2023-01-28T12:07:38;95658.09;;;14.37;59.81
15444;BME280;7822;48.146;11.576;2023-01-28T12:10:19;95664.28;;;14.36;59.77
15444;BME280;7822;48.146;11.576;2023-01-28T12:13:00;95659.16;;;14.34;59.51
15444;BME280;7822;48.146;11.576;2023-01-28T12:15:58;95660.97;;;14.34;59.43
15444;BME280;7822;48.146;11.576;2023-01-28T12:18:46;95653.16;;;14.34;59.59
15444;BME280;7822;48.146;11.576;2023-01-28T12:21:24;95660.16;;;14.33;59.54
15444;BME280;7822;48.146;11.576;2023-01-28T12:24:06;95660.00;;;14.35;59.71
15444;BME280;7822;48.146;11.576;2023-01-28T12:26:43;95656.56;;;14.34;59.72
15444;BME280;7822;48.146;11.576;2023-01-28T12:29:23;95663.59;;;14.34;59.76
15444;BME280;7822;48.146;11.576;2023-01-28T12:32:05;95664.41;;;14.34;59.78
15444;BME280;7822;48.146;11.576;2023-01-28T12:34:54;95657.41;;;14.35;59.71
15444;BME280;7822;48.146;11.576;2023-01-28T12:37:34;95660.00;;;14.35;59.85
15444;BME280;7822;48.146;11.576;2023-01-28T12:40:18;95669.63;;;14.34;59.63
15444;BME280;7822;48.146;11.576;2023-01-28T12:42:52;95671.28;;;14.35;59.61
15444;BME280;7822;48.146;11.576;2023-01-28T12:45:25;95667.84;;;14.35;59.63
15444;BME280;7822;48.146;11.576;2023-01-28T12:47:57;95659.16;;;14.34;59.68
15444;BME280;7822;48.146;11.576;2023-01-28T12:50:32;95663.59;;;14.34;59.75
15444;BME280;7822;48.146;11.576;2023-01-28T12:53:11;95666.19;;;14.34;59.56
15444;BME280;7822;48.146;11.576;2023-01-28T12:55:47;95662.63;;;14.35;59.88
15444;BME280;7822;48.146;11.576;2023-01-28T12:58:20;95667.00;;;14.34;59.64
15444;BME280;7822;48.146;11.576;2023-01-28T13:00:50;95666.19;;;14.34;59.82
15444;BME280;7822;48.146;11.576;2023-01-28T13:03:29;95665.38;;;14.33;59.66
15444;BME280;7822;48.146;11.576;2023-01-28T13:06:01;95665.38;;;14.33;59.76
15444;BME280;7822;48.146;11.576;2023-01-28T13:08:31;95669.75;;;14.33;60.10
15444;BME280;7822;48.146;11.576;2023-01-28T13:11:01;95662.75;;;14.33;59.84
15444;BME280;7822;48.146;11.576;2023-01-28T13:13:32;95672.22;;;14.34;59.86
15444;BME280;7822;48.146;11.576;2023-01-28T13:16:02;95667.16;;;14.33;59.93
15444;BME280;7822;48.146;11.576;2023-01-28T13:18:33;95676.63;;;14.34;59.92
15444;BME280;7822;48.146;11.576;2023-01-28T13:21:02;95680.88;;;14.35;60.24
15444;BME280;7822;48.146;11.576;2023-01-28T13:23:39;95673.06;;;14.35;59.88